Belozersk, Russia
Current Conditions -  °F | °C
As of 11:00 PM on Friday 31 Oct 2014 (Local Time) from ULWC Reporting Station
Overcast Overcast  
Wind Chill: 32°   Ceiling: Unl
Heat Index: 32°   Visibility: 6mi
Dew Point: 30°   Wind: 2mph
Humidity: 93%   Direction: 250°WSW
Pressure: 30.03"   Gusts: NA
Location:  60.04°N, 37.79°E
Report Text: ULWC 312000Z 25001MPS 9999 SCT026 OVC/// M00/M01 Q1017 TEMPO4000 SHSN RMK QFE753/1004 SC045
Loading
Personal Weather Stations






























Interactive Weather Map
Tropical Storm Tracking
New forecast layout! Learn more

10-Day Weather Forecast

Advertisements
Track Severe Weather on mobile